Time;durP1;ratioP1;P1;durP2;ratioP2;P2;SDS_P1;SDS_P2;PMS_P1;PMS_P2;Temp;Humidity;BMP_temperature;BMP_pressure;BME280_temperature;BME280_humidity;BME280_pressure;Samples;Min_cycle;Max_cycle;Signal;HPM_P1;HPM_P2
2022/12/08 00:00:50;;;;;;;35.50;28.73;;;;;;;1.03;100.00;160840.59;5049936;28;20616;-62
2022/12/08 00:03:15;;;;;;;41.78;29.60;;;;;;;1.03;100.00;160840.59;5052487;28;20545;-65
2022/12/08 00:11:16;;;;;;;48.78;33.30;;;;;;;0.89;100.00;160805.75;5051163;28;20043;-65
2022/12/08 00:13:42;;;;;;;40.80;33.38;;;;;;;0.85;100.00;160795.03;5052563;28;20028;-65
2022/12/08 00:16:07;;;;;;;38.25;32.13;;;;;;;0.89;100.00;160804.44;5045506;28;20067;-65
2022/12/08 00:18:33;;;;;;;50.67;33.03;;;;;;;0.85;100.00;160795.03;5052348;28;20086;-65
2022/12/08 00:20:58;;;;;;;49.28;34.85;;;;;;;0.89;100.00;160804.44;5050893;28;20021;-65
2022/12/08 00:23:24;;;;;;;50.20;33.40;;;;;;;0.89;100.00;160804.44;5052564;28;20028;-65
2022/12/08 00:25:49;;;;;;;47.85;35.42;;;;;;;0.87;100.00;160800.38;5050377;28;20135;-64
2022/12/08 00:28:15;;;;;;;45.28;36.00;;;;;;;0.87;100.00;160800.38;5052092;28;20029;-65
2022/12/08 00:30:41;;;;;;;48.05;35.95;;;;;;;0.88;100.00;160803.06;5050705;28;20384;-62
2022/12/08 00:33:07;;;;;;;52.25;37.35;;;;;;;0.94;100.00;160819.16;5051516;28;20379;-65
2022/12/08 00:35:33;;;;;;;49.38;36.00;;;;;;;0.90;100.00;160808.44;5052362;28;20104;-65
2022/12/08 00:37:59;;;;;;;48.65;39.25;;;;;;;0.89;100.00;160804.44;5050511;28;20044;-64
2022/12/08 00:40:24;;;;;;;45.47;36.60;;;;;;;0.83;100.00;160788.28;5051728;28;20044;-64
2022/12/08 00:42:49;;;;;;;46.17;35.40;;;;;;;0.79;100.00;160778.91;5050050;28;20037;-64
2022/12/08 00:45:15;;;;;;;49.95;35.50;;;;;;;0.74;100.00;160765.53;5051949;28;20037;-65
2022/12/08 00:47:40;;;;;;;59.30;39.17;;;;;;;0.73;100.00;160764.19;5050305;28;20120;-65
2022/12/08 00:50:06;;;;;;;62.15;39.38;;;;;;;0.79;100.00;160778.91;5051816;28;20383;-65
2022/12/08 00:52:32;;;;;;;52.80;38.28;;;;;;;0.86;100.00;160797.69;5050483;28;20045;-65
2022/12/08 00:54:57;;;;;;;54.63;36.47;;;;;;;0.86;100.00;160797.69;5051230;28;20025;-64
2022/12/08 00:57:22;;;;;;;43.05;34.13;;;;;;;0.92;100.00;160812.44;5046596;28;20052;-64
2022/12/08 00:59:48;;;;;;;53.08;36.33;;;;;;;0.85;100.00;160795.03;5031779;28;20028;-64
2022/12/08 01:02:13;;;;;;;50.83;37.17;;;;;;;0.76;100.00;160770.91;5029648;28;20053;-64
2022/12/08 01:04:39;;;;;;;52.78;40.50;;;;;;;0.82;100.00;160785.66;5031887;28;20021;-64
2022/12/08 01:07:04;;;;;;;49.38;38.80;;;;;;;0.86;100.00;160797.69;5030083;28;20096;-64
2022/12/08 01:09:29;;;;;;;52.75;37.63;;;;;;;0.88;100.00;160801.75;5031486;28;20029;-64
2022/12/08 01:11:55;;;;;;;45.97;34.78;;;;;;;0.92;100.00;160812.44;5029681;28;20048;-64
2022/12/08 01:14:20;;;;;;;52.95;39.47;;;;;;;0.94;100.00;160819.16;5031382;28;20387;-64
2022/12/08 01:16:46;;;;;;;55.58;37.45;;;;;;;1.03;100.00;160840.59;5029887;28;20041;-64
2022/12/08 01:19:13;;;;;;;45.33;33.83;;;;;;;1.07;100.00;160851.38;5031595;28;20143;-64
2022/12/08 01:21:38;;;;;;;45.63;34.08;;;;;;;1.06;100.00;160848.69;5030092;28;20124;-64
2022/12/08 01:24:04;;;;;;;43.28;35.28;;;;;;;1.04;100.00;160843.28;5030908;28;20033;-64
2022/12/08 01:26:30;;;;;;;43.15;33.03;;;;;;;1.00;100.00;160833.91;5030111;28;20045;-64
2022/12/08 01:28:55;;;;;;;51.47;35.85;;;;;;;0.89;100.00;160805.75;5030941;28;20022;-64
2022/12/08 01:31:21;;;;;;;46.17;34.45;;;;;;;0.92;100.00;160813.81;5029531;28;20411;-64
2022/12/08 01:33:48;;;;;;;39.88;33.60;;;;;;;1.05;100.00;160845.97;5031265;28;20107;-64
2022/12/08 01:36:29;;;;;;;42.08;34.53;;;;;;;1.10;100.00;160860.75;5029492;28;20041;-63
2022/12/08 01:38:59;;;;;;;43.13;33.83;;;;;;;1.16;100.00;160875.47;5030622;28;20548;-64
2022/12/08 01:41:28;;;;;;;40.08;33.63;;;;;;;1.17;100.00;160876.84;5029823;28;20038;-63
2022/12/08 01:43:59;;;;;;;44.72;36.53;;;;;;;1.15;100.00;160872.81;5030646;28;20128;-63
2022/12/08 01:46:26;;;;;;;41.13;34.35;;;;;;;1.18;100.00;160880.84;5029391;28;20778;-63
2022/12/08 01:48:55;;;;;;;41.53;33.22;;;;;;;1.19;100.00;160883.53;5031232;28;20072;-63
2022/12/08 01:51:21;;;;;;;47.28;36.85;;;;;;;1.18;100.00;160880.84;5029614;28;20038;-63
2022/12/08 01:53:47;;;;;;;48.70;35.55;;;;;;;1.21;100.00;160888.91;5030433;28;20026;-63
2022/12/08 01:56:20;;;;;;;48.40;35.97;;;;;;;1.25;100.00;160899.63;5029423;28;20427;-64
2022/12/08 01:58:50;;;;;;;43.33;34.65;;;;;;;1.31;100.00;160914.38;5031170;28;20160;-64
2022/12/08 02:01:16;;;;;;;45.42;35.42;;;;;;;1.35;100.00;160925.09;5029195;28;20037;-64
2022/12/08 02:03:57;;;;;;;50.40;38.05;;;;;;;1.37;100.00;160929.16;5030785;28;20057;-64
2022/12/08 02:06:24;;;;;;;46.88;37.08;;;;;;;1.48;100.00;160957.31;5029795;28;20046;-64
2022/12/08 02:08:50;;;;;;;47.90;35.97;;;;;;;1.51;100.00;160966.72;5050457;28;20560;-64
2022/12/08 02:11:16;;;;;;;48.70;36.85;;;;;;;1.52;100.00;160969.41;5049226;28;20511;-64
2022/12/08 02:13:44;;;;;;;47.65;37.33;;;;;;;1.54;100.00;160974.75;5050588;28;20029;-64
2022/12/08 02:16:33;;;;;;;50.80;38.55;;;;;;;1.56;100.00;160980.13;5048621;28;20045;-64
2022/12/08 02:19:21;;;;;;;46.70;35.25;;;;;;;1.61;100.00;160992.19;5050473;28;20439;-64
2022/12/08 02:21:54;;;;;;;42.97;33.05;;;;;;;1.60;100.00;160989.50;5049191;28;20171;-64
2022/12/08 02:24:53;;;;;;;46.60;34.10;;;;;;;1.67;100.00;161006.97;5053003;28;20084;-65
2022/12/08 02:27:22;;;;;;;47.33;30.77;;;;;;;1.69;100.00;161012.31;5053166;28;20036;-64
2022/12/08 02:30:06;;;;;;;41.75;31.15;;;;;;;1.63;100.00;160996.22;5054737;28;20099;-64
2022/12/08 02:32:54;;;;;;;41.05;32.50;;;;;;;1.70;100.00;161016.34;5052861;28;20052;-64
2022/12/08 02:36:00;;;;;;;41.58;32.20;;;;;;;1.75;100.00;161028.38;5054282;28;20104;-64
2022/12/08 02:38:52;;;;;;;36.17;29.60;;;;;;;1.82;100.00;161045.84;5052899;28;20497;-64
2022/12/08 02:41:28;;;;;;;36.85;28.48;;;;;;;1.84;100.00;161052.56;5052900;28;20114;-64
2022/12/08 02:44:04;;;;;;;43.03;30.17;;;;;;;1.87;100.00;161060.63;5054040;28;20053;-64
2022/12/08 02:46:41;;;;;;;36.58;28.15;;;;;;;1.87;100.00;161060.63;5052522;28;20052;-64
2022/12/08 02:49:08;;;;;;;31.73;25.60;;;;;;;1.88;100.00;161063.31;5053724;28;20559;-62
2022/12/08 02:51:33;;;;;;;35.00;25.33;;;;;;;1.92;100.00;161072.72;5032798;28;20045;-66
2022/12/08 02:54:00;;;;;;;31.17;25.50;;;;;;;2.00;100.00;161094.19;5034543;28;20037;-66
2022/12/08 02:56:45;;;;;;;38.22;26.02;;;;;;;2.03;100.00;161102.22;5032709;28;20041;-65
2022/12/08 02:59:13;;;;;;;32.63;25.33;;;;;;;2.08;100.00;161114.31;5033937;28;20028;-65
2022/12/08 03:01:48;;;;;;;23.15;17.73;;;;;;;2.12;100.00;161125.06;5032281;28;20041;-65
2022/12/08 03:04:42;;;;;;;26.00;22.95;;;;;;;2.16;100.00;161135.78;5033898;28;20030;-65
2022/12/08 03:07:18;;;;;;;27.23;24.33;;;;;;;2.16;100.00;161135.78;5032097;28;20049;-65
2022/12/08 03:09:51;;;;;;;37.72;24.80;;;;;;;2.18;100.00;161141.16;5033892;28;20025;-65
2022/12/08 03:12:24;;;;;;;27.15;24.20;;;;;;;2.24;100.00;161155.88;5032453;28;20448;-65
2022/12/08 03:14:53;;;;;;;28.27;25.27;;;;;;;2.33;100.00;161178.75;5033189;28;20690;-65
2022/12/08 03:17:22;;;;;;;27.92;23.30;;;;;;;2.29;100.00;161167.97;5032138;28;20041;-65
2022/12/08 03:19:48;;;;;;;29.27;23.35;;;;;;;2.43;100.00;161205.56;5033954;28;20045;-65
2022/12/08 03:22:18;;;;;;;30.85;24.85;;;;;;;2.45;100.00;161210.94;5031726;28;20126;-64
2022/12/08 03:24:45;;;;;;;26.85;24.08;;;;;;;2.51;100.00;161227.03;5033361;28;20460;-65
2022/12/08 03:27:26;;;;;;;31.35;25.88;;;;;;;2.48;100.00;161219.03;5032037;28;20470;-65
2022/12/08 03:29:53;;;;;;;29.38;23.98;;;;;;;2.52;100.00;161229.75;5033167;28;20113;-65
2022/12/08 03:32:51;;;;;;;34.85;25.25;;;;;;;2.57;100.00;161240.50;5047386;28;20412;-64
2022/12/08 03:35:27;;;;;;;31.55;25.83;;;;;;;2.54;100.00;161233.75;5051993;28;20021;-65
2022/12/08 03:38:05;;;;;;;32.13;22.42;;;;;;;2.56;100.00;161237.81;5050969;28;20128;-64
2022/12/08 03:40:31;;;;;;;33.38;27.92;;;;;;;2.57;100.00;161240.50;5053382;28;20057;-65
2022/12/08 03:42:56;;;;;;;32.15;23.77;;;;;;;2.57;100.00;161240.50;5051336;28;20399;-65
2022/12/08 03:45:22;;;;;;;34.75;26.48;;;;;;;2.60;100.00;161248.53;5052609;28;20049;-65
2022/12/08 03:47:47;;;;;;;27.85;24.95;;;;;;;2.58;100.00;161243.16;5051840;28;20036;-65
2022/12/08 03:50:12;;;;;;;32.53;25.95;;;;;;;2.58;100.00;161243.16;5052691;28;20021;-65
2022/12/08 03:52:38;;;;;;;33.30;26.38;;;;;;;2.58;100.00;161243.16;5051142;28;20400;-64
2022/12/08 03:55:03;;;;;;;33.17;28.00;;;;;;;2.64;100.00;161259.31;5052662;28;20032;-63
2022/12/08 03:57:29;;;;;;;33.40;26.00;;;;;;;2.61;100.00;161251.22;5051304;28;20048;-63
2022/12/08 03:59:54;;;;;;;31.27;25.13;;;;;;;2.68;100.00;161271.34;5012883;28;20080;-63
2022/12/08 04:02:19;;;;;;;28.45;24.90;;;;;;;2.68;100.00;161270.03;5011747;28;20046;-63
2022/12/08 04:04:45;;;;;;;30.45;25.25;;;;;;;2.66;100.00;161264.63;5013157;28;20025;-63
2022/12/08 04:07:10;;;;;;;29.90;25.05;;;;;;;2.62;100.00;161253.91;5011059;28;20053;-63
2022/12/08 04:09:35;;;;;;;27.50;23.63;;;;;;;2.64;100.00;161259.31;5013196;28;20060;-64
2022/12/08 04:12:01;;;;;;;29.38;22.52;;;;;;;2.62;100.00;161255.25;5011254;28;20428;-64
2022/12/08 04:14:26;;;;;;;27.80;22.88;;;;;;;2.67;100.00;161267.31;5030693;28;20416;-64
2022/12/08 04:16:51;;;;;;;31.75;24.33;;;;;;;2.68;100.00;161270.03;5031200;28;20052;-64
2022/12/08 04:19:17;;;;;;;25.83;21.58;;;;;;;2.65;100.00;161261.94;5032700;28;20029;-64
2022/12/08 04:21:42;;;;;;;31.05;24.15;;;;;;;2.58;100.00;161243.16;5030786;28;20049;-64
2022/12/08 04:24:08;;;;;;;25.27;21.70;;;;;;;2.59;100.00;161245.84;5032286;28;20021;-64
2022/12/08 04:26:33;;;;;;;30.52;22.88;;;;;;;2.59;100.00;161245.84;5031098;28;20342;-64
2022/12/08 04:28:58;;;;;;;25.83;22.92;;;;;;;2.60;100.00;161249.91;5032038;28;20017;-64
2022/12/08 04:31:24;;;;;;;25.27;22.02;;;;;;;2.65;100.00;161263.31;5031034;28;20052;-64
2022/12/08 04:33:49;;;;;;;24.42;21.77;;;;;;;2.63;100.00;161256.59;5032166;28;20026;-63
2022/12/08 04:36:14;;;;;;;30.60;23.73;;;;;;;2.62;100.00;161253.91;5030468;28;20041;-64
2022/12/08 04:38:40;;;;;;;24.42;20.92;;;;;;;2.64;100.00;161260.63;5032343;28;20021;-64
2022/12/08 04:41:05;;;;;;;26.80;21.15;;;;;;;2.59;100.00;161245.84;5030529;28;20543;-64
2022/12/08 04:43:30;;;;;;;27.02;22.42;;;;;;;2.61;100.00;161251.22;5031990;28;20390;-63
2022/12/08 04:45:56;;;;;;;26.00;20.63;;;;;;;2.66;100.00;161266.00;5029943;28;20501;-63
2022/12/08 04:48:22;;;;;;;27.20;23.45;;;;;;;2.64;100.00;161259.31;5032190;28;20193;-63
2022/12/08 04:50:47;;;;;;;31.45;23.30;;;;;;;2.59;100.00;161245.84;5030182;28;20025;-63
2022/12/08 04:53:13;;;;;;;26.55;23.05;;;;;;;2.61;100.00;161252.53;5031827;28;20030;-63
2022/12/08 04:55:43;;;;;;;27.67;20.85;;;;;;;2.65;100.00;161261.94;5030271;28;20025;-63
2022/12/08 04:58:12;;;;;;;25.73;21.17;;;;;;;2.68;100.00;161270.03;5031681;28;20018;-63
2022/12/08 05:00:38;;;;;;;28.95;20.60;;;;;;;2.67;100.00;161267.31;5030477;28;20551;-63
2022/12/08 05:03:04;;;;;;;27.08;21.70;;;;;;;2.66;100.00;161264.63;5031498;28;20030;-63
2022/12/08 05:05:29;;;;;;;24.73;20.23;;;;;;;2.63;100.00;161257.94;5031706;28;20030;-63
2022/12/08 05:07:54;;;;;;;26.63;22.38;;;;;;;2.58;100.00;161243.16;5036130;28;21506;-63
2022/12/08 05:10:20;;;;;;;23.02;20.42;;;;;;;2.61;100.00;161252.53;5031618;28;20056;-66
2022/12/08 05:12:45;;;;;;;29.80;22.25;;;;;;;2.63;100.00;161256.59;5038163;28;20037;-61
2022/12/08 05:15:10;;;;;;;21.63;19.38;;;;;;;2.65;100.00;161263.31;5048970;28;20507;-62
2022/12/08 05:17:36;;;;;;;26.65;22.15;;;;;;;2.66;100.00;161264.63;5026797;28;20451;-61
2022/12/08 05:20:01;;;;;;;23.83;19.05;;;;;;;2.64;100.00;161259.31;5049017;28;20029;-61
2022/12/08 05:22:26;;;;;;;30.77;23.00;;;;;;;2.69;100.00;161272.72;5030634;28;20042;-61
2022/12/08 05:24:52;;;;;;;22.55;19.30;;;;;;;2.66;100.00;161266.00;5031295;28;20022;-61
2022/12/08 05:27:17;;;;;;;26.20;22.75;;;;;;;2.65;100.00;161261.94;5029906;28;20652;-61
2022/12/08 05:29:43;;;;;;;28.13;20.65;;;;;;;2.60;100.00;161248.53;5031131;28;20381;-62
2022/12/08 05:32:08;;;;;;;25.67;20.75;;;;;;;2.60;100.00;161248.53;5029521;28;20041;-61
2022/12/08 05:34:33;;;;;;;26.85;20.00;;;;;;;2.60;100.00;161248.53;5030970;28;20022;-61
2022/12/08 05:36:59;;;;;;;27.35;19.15;;;;;;;2.61;100.00;161251.22;5033545;28;20491;-61
2022/12/08 05:39:24;;;;;;;26.52;20.92;;;;;;;2.62;100.00;161253.91;5046536;28;20383;-61
2022/12/08 05:41:49;;;;;;;24.77;19.73;;;;;;;2.57;100.00;161241.81;5049356;28;20041;-60
2022/12/08 05:44:15;;;;;;;24.85;20.63;;;;;;;2.62;100.00;161253.91;5050591;28;20488;-60
2022/12/08 05:46:40;;;;;;;25.65;20.40;;;;;;;2.66;100.00;161264.63;5049582;28;20064;-60
2022/12/08 05:49:05;;;;;;;25.35;21.70;;;;;;;2.62;100.00;161253.91;5050609;28;20028;-60
2022/12/08 05:51:31;;;;;;;25.35;19.10;;;;;;;2.62;100.00;161253.91;5049141;28;20051;-61
2022/12/08 05:53:57;;;;;;;21.02;17.88;;;;;;;2.59;100.00;161245.84;5050617;28;20035;-60
2022/12/08 05:56:22;;;;;;;21.38;18.45;;;;;;;2.50;100.00;161223.03;5049447;28;20431;-60
2022/12/08 05:58:48;;;;;;;21.95;17.33;;;;;;;2.63;100.00;161256.59;5049815;28;20020;-61
2022/12/08 06:01:24;;;;;;;21.30;17.35;;;;;;;2.56;100.00;161237.81;5049035;28;20511;-60
2022/12/08 06:03:50;;;;;;;22.38;17.40;;;;;;;2.56;100.00;161237.81;5050729;28;20087;-61
2022/12/08 06:06:15;;;;;;;22.83;18.10;;;;;;;2.52;100.00;161229.75;5049153;28;20449;-60
2022/12/08 06:08:41;;;;;;;16.33;14.65;;;;;;;2.52;100.00;161229.75;5050938;28;20365;-61
2022/12/08 06:11:06;;;;;;;22.98;16.98;;;;;;;2.51;100.00;161227.03;5049123;28;20041;-61
2022/12/08 06:13:31;;;;;;;16.52;14.23;;;;;;;2.49;100.00;161220.34;5050596;28;20218;-61
2022/12/08 06:16:05;;;;;;;17.73;14.23;;;;;;;2.47;100.00;161216.31;5048902;28;20096;-61
2022/12/08 06:18:31;;;;;;;15.85;14.15;;;;;;;2.44;100.00;161208.25;5050726;28;20132;-61
2022/12/08 06:21:07;;;;;;;16.23;14.13;;;;;;;2.43;100.00;161204.25;5043440;28;20035;-61
2022/12/08 06:23:33;;;;;;;14.50;12.73;;;;;;;2.41;100.00;161200.22;5050670;28;20060;-61
2022/12/08 06:26:03;;;;;;;17.48;13.02;;;;;;;2.40;100.00;161197.53;5048929;28;20064;-61
2022/12/08 06:28:30;;;;;;;16.02;13.75;;;;;;;2.38;100.00;161192.16;5050034;28;20033;-60
2022/12/08 06:30:55;;;;;;;12.90;11.52;;;;;;;2.34;100.00;161182.75;5048801;28;20533;-60
2022/12/08 06:33:21;;;;;;;13.32;10.20;;;;;;;2.32;100.00;161176.06;5050589;28;20025;-60
2022/12/08 06:35:46;;;;;;;15.38;13.77;;;;;;;2.29;100.00;161167.97;5048521;28;20017;-60
2022/12/08 06:38:11;;;;;;;13.75;12.13;;;;;;;2.30;100.00;161170.66;5050366;28;20021;-61
2022/12/08 06:40:37;;;;;;;10.75;9.68;;;;;;;2.33;100.00;161178.75;5050545;28;20025;-60
2022/12/08 06:43:02;;;;;;;14.82;11.43;;;;;;;2.22;100.00;161151.88;5048262;28;20055;-61
2022/12/08 06:45:27;;;;;;;11.73;9.75;;;;;;;2.24;100.00;161154.56;5050175;28;20056;-60
2022/12/08 06:47:53;;;;;;;9.77;8.88;;;;;;;2.26;100.00;161159.94;5048686;28;20491;-60
2022/12/08 06:50:18;;;;;;;11.13;10.02;;;;;;;2.06;100.00;161108.91;5050104;28;20416;-60
2022/12/08 06:52:45;;;;;;;10.75;9.73;;;;;;;2.26;100.00;161159.94;5048775;28;20045;-60
2022/12/08 06:55:10;;;;;;;10.40;9.40;;;;;;;2.17;100.00;161137.09;5050182;28;20013;-60
2022/12/08 06:57:36;;;;;;;11.05;9.98;;;;;;;2.16;100.00;161135.78;5048481;28;20052;-60
2022/12/08 07:00:04;;;;;;;10.15;9.15;;;;;;;2.16;100.00;161134.47;5050056;28;20044;-60
2022/12/08 07:02:29;;;;;;;10.43;9.43;;;;;;;2.11;100.00;161122.38;5048579;28;20136;-60
2022/12/08 07:04:55;;;;;;;9.35;7.80;;;;;;;2.08;100.00;161114.31;5049855;28;20017;-60
2022/12/08 07:07:20;;;;;;;8.38;7.55;;;;;;;2.07;100.00;161111.59;5048578;28;20048;-60
2022/12/08 07:09:45;;;;;;;8.93;7.78;;;;;;;2.10;100.00;161119.69;5051799;28;20024;-60
2022/12/08 07:12:11;;;;;;;10.38;8.43;;;;;;;2.10;100.00;161119.69;5051846;28;20041;-60
2022/12/08 07:14:36;;;;;;;8.68;7.70;;;;;;;2.08;100.00;161114.31;5053728;28;20435;-60
2022/12/08 07:17:01;;;;;;;8.57;7.82;;;;;;;2.04;100.00;161103.59;5051931;28;20060;-60
2022/12/08 07:19:27;;;;;;;10.80;9.80;;;;;;;2.01;100.00;161095.50;5053457;28;20028;-60
2022/12/08 07:21:52;;;;;;;9.00;8.20;;;;;;;2.02;100.00;161098.19;5052003;28;20056;-60
2022/12/08 07:24:17;;;;;;;9.60;8.80;;;;;;;2.06;100.00;161108.91;5053714;28;20052;-60
2022/12/08 07:26:43;;;;;;;8.95;7.85;;;;;;;2.08;100.00;161114.31;5051671;28;20041;-60
2022/12/08 07:29:09;;;;;;;9.15;8.27;;;;;;;2.10;100.00;161119.69;5053232;28;20017;-60
2022/12/08 07:31:34;;;;;;;9.05;8.25;;;;;;;2.07;100.00;161111.59;5051891;28;20599;-60
2022/12/08 07:34:00;;;;;;;9.85;8.88;;;;;;;2.06;100.00;161108.91;5052794;28;20036;-60
2022/12/08 07:36:25;;;;;;;7.88;7.18;;;;;;;2.06;100.00;161108.91;5051943;28;20040;-60
2022/12/08 07:38:54;;;;;;;9.95;8.95;;;;;;;2.01;100.00;161096.84;5053152;28;20036;-60
2022/12/08 07:41:23;;;;;;;10.18;8.32;;;;;;;2.03;100.00;161100.91;5051811;28;20118;-60
2022/12/08 07:43:49;;;;;;;10.95;9.45;;;;;;;1.98;100.00;161087.44;5053248;28;20080;-60
2022/12/08 07:46:17;;;;;;;9.18;8.32;;;;;;;2.03;100.00;161102.22;5051431;28;20057;-60
2022/12/08 07:48:43;;;;;;;11.77;9.45;;;;;;;2.00;100.00;161092.81;5052861;28;20484;-60
2022/12/08 07:51:10;;;;;;;9.07;8.27;;;;;;;1.94;100.00;161076.72;5051499;28;20045;-60
2022/12/08 07:53:38;;;;;;;11.27;10.02;;;;;;;1.90;100.00;161068.66;5047894;28;20484;-60
2022/12/08 07:56:06;;;;;;;8.63;7.68;;;;;;;1.88;100.00;161063.31;5050889;28;20570;-60
2022/12/08 07:58:31;;;;;;;11.70;9.07;;;;;;;1.85;100.00;161053.94;5052900;28;20033;-60
2022/12/08 08:00:56;;;;;;;10.10;8.98;;;;;;;1.83;100.00;161049.88;5051237;28;20538;-60
2022/12/08 08:03:22;;;;;;;9.32;8.48;;;;;;;1.83;100.00;161049.88;5052742;28;20426;-60
2022/12/08 08:05:48;;;;;;;9.95;8.95;;;;;;;1.81;100.00;161044.53;5051674;28;20033;-60
2022/12/08 08:08:14;;;;;;;13.65;8.73;;;;;;;1.87;100.00;161059.25;5052855;28;20071;-60
2022/12/08 08:10:40;;;;;;;10.88;9.88;;;;;;;1.90;100.00;161067.34;5050948;28;20438;-59
2022/12/08 08:13:05;;;;;;;9.55;8.65;;;;;;;1.90;100.00;161068.66;5052477;28;20381;-60
2022/12/08 08:15:30;;;;;;;8.82;7.93;;;;;;;1.86;100.00;161057.94;5052708;28;20028;-60
2022/12/08 08:17:56;;;;;;;12.38;10.63;;;;;;;1.89;100.00;161066.00;5050720;28;20033;-60
2022/12/08 08:20:21;;;;;;;10.43;9.43;;;;;;;1.88;100.00;161063.31;5052363;28;20028;-60
2022/12/08 08:22:48;;;;;;;11.70;10.57;;;;;;;1.88;100.00;161061.94;5050634;28;20045;-59
2022/12/08 08:25:14;;;;;;;13.32;11.93;;;;;;;1.87;100.00;161060.63;5051948;28;20056;-59
2022/12/08 08:27:40;;;;;;;14.93;13.43;;;;;;;1.88;100.00;161063.31;5051218;28;20099;-60
2022/12/08 08:30:07;;;;;;;16.33;13.98;;;;;;;1.89;100.00;161064.66;5052005;28;20021;-60
2022/12/08 08:32:33;;;;;;;14.57;11.60;;;;;;;1.92;100.00;161071.34;5050696;28;20056;-60
2022/12/08 08:34:58;;;;;;;11.50;10.13;;;;;;;1.92;100.00;161071.34;5051935;28;20013;-60
2022/12/08 08:37:24;;;;;;;13.85;12.43;;;;;;;1.90;100.00;161068.66;5050762;28;20040;-60
2022/12/08 08:39:49;;;;;;;16.60;11.63;;;;;;;1.98;100.00;161088.81;5051990;28;20040;-60
2022/12/08 08:42:15;;;;;;;22.40;16.90;;;;;;;2.04;100.00;161103.59;5050276;28;20087;-60
2022/12/08 08:44:40;;;;;;;14.23;12.40;;;;;;;2.07;100.00;161111.59;5051940;28;20048;-60
2022/12/08 08:47:05;;;;;;;13.77;11.15;;;;;;;2.09;100.00;161117.00;5050333;28;20048;-60
2022/12/08 08:49:31;;;;;;;11.60;10.32;;;;;;;2.10;100.00;161119.69;5051609;28;20025;-60
2022/12/08 08:51:56;;;;;;;15.70;12.38;;;;;;;2.17;100.00;161137.09;5050231;28;20045;-60
2022/12/08 08:54:22;;;;;;;13.43;11.18;;;;;;;2.17;100.00;161137.09;5051883;28;20028;-60
2022/12/08 08:56:47;;;;;;;13.75;11.70;;;;;;;2.19;100.00;161143.84;5050118;28;20043;-60
2022/12/08 08:59:12;;;;;;;17.48;13.10;;;;;;;2.26;100.00;161159.94;5051630;28;20666;-60
2022/12/08 09:01:38;;;;;;;14.55;12.18;;;;;;;2.27;100.00;161162.66;5050317;28;20041;-60
2022/12/08 09:04:03;;;;;;;17.33;14.07;;;;;;;2.33;100.00;161178.75;5051162;28;20029;-60
2022/12/08 09:06:29;;;;;;;14.13;12.57;;;;;;;2.31;100.00;161173.34;5050305;28;20041;-60
2022/12/08 09:08:54;;;;;;;13.55;11.90;;;;;;;2.33;100.00;161178.75;5051502;28;20033;-60
2022/12/08 09:11:22;;;;;;;13.02;11.63;;;;;;;2.33;100.00;161178.75;5049764;28;20496;-60
2022/12/08 09:13:48;;;;;;;15.25;11.73;;;;;;;2.36;100.00;161186.75;5051545;28;20032;-60
2022/12/08 09:16:14;;;;;;;12.02;10.82;;;;;;;2.41;100.00;161198.84;5050159;28;20059;-60
2022/12/08 09:18:39;;;;;;;13.35;11.98;;;;;;;2.41;100.00;161200.22;5050943;28;20071;-60
2022/12/08 09:21:07;;;;;;;13.90;11.05;;;;;;;2.41;100.00;161200.22;5049891;28;20048;-60
2022/12/08 09:23:33;;;;;;;16.80;12.47;;;;;;;2.42;100.00;161202.88;5051819;28;20033;-60
2022/12/08 09:25:58;;;;;;;16.35;13.30;;;;;;;2.36;100.00;161186.75;5049266;28;20033;-60
2022/12/08 09:28:24;;;;;;;12.85;11.55;;;;;;;2.39;100.00;161194.84;5051385;28;20494;-60
2022/12/08 09:30:50;;;;;;;14.38;12.75;;;;;;;2.38;100.00;161193.47;5049941;28;20025;-60
2022/12/08 09:33:16;;;;;;;17.73;13.68;;;;;;;2.36;100.00;161188.13;5051173;28;20017;-60
2022/12/08 09:35:41;;;;;;;15.32;11.93;;;;;;;2.43;100.00;161205.56;5049651;28;20012;-60
2022/12/08 09:38:06;;;;;;;12.73;11.35;;;;;;;2.46;100.00;161213.63;5051018;28;20021;-60
2022/12/08 09:40:38;;;;;;;12.95;11.43;;;;;;;2.49;100.00;161220.34;5050941;28;20411;-60
2022/12/08 09:43:18;;;;;;;16.27;13.35;;;;;;;2.49;100.00;161221.72;5049531;28;20033;-60
2022/12/08 09:45:45;;;;;;;17.00;12.00;;;;;;;2.50;100.00;161223.03;5049925;28;20112;-59
2022/12/08 09:48:30;;;;;;;13.02;11.65;;;;;;;2.53;100.00;161231.09;5050502;28;20025;-59
2022/12/08 09:50:57;;;;;;;13.65;11.85;;;;;;;2.49;100.00;161221.72;5049342;28;20111;-59
2022/12/08 09:53:27;;;;;;;12.38;11.10;;;;;;;2.60;100.00;161248.53;5051141;28;20473;-59
2022/12/08 09:55:57;;;;;;;13.80;11.70;;;;;;;2.62;100.00;161253.91;5048705;28;20025;-59
2022/12/08 09:58:49;;;;;;;12.80;11.60;;;;;;;2.60;100.00;161248.53;5050977;28;20029;-60
2022/12/08 10:01:15;;;;;;;12.50;11.00;;;;;;;2.58;100.00;161243.16;5049248;28;20037;-60
2022/12/08 10:03:41;;;;;;;12.52;11.23;;;;;;;2.60;100.00;161248.53;5050501;28;20031;-60
2022/12/08 10:06:20;;;;;;;11.77;10.35;;;;;;;2.58;100.00;161244.53;5049049;28;20049;-59
2022/12/08 10:09:17;;;;;;;13.23;11.35;;;;;;;2.68;100.00;161270.03;5050439;28;20385;-60
2022/12/08 10:12:16;;;;;;;17.33;13.45;;;;;;;2.70;100.00;161275.41;5049139;28;20045;-59
2022/12/08 10:15:12;;;;;;;13.73;10.35;;;;;;;2.76;100.00;161291.50;5030374;28;20040;-60
2022/12/08 10:17:47;;;;;;;10.38;9.35;;;;;;;2.77;100.00;161294.19;5048785;28;20120;-60
2022/12/08 10:20:22;;;;;;;12.73;8.70;;;;;;;2.87;100.00;161319.69;5050752;28;20083;-60
2022/12/08 10:23:11;;;;;;;15.27;10.40;;;;;;;3.00;100.00;161353.28;5049004;28;20694;-60
2022/12/08 10:25:53;;;;;;;10.68;9.23;;;;;;;3.04;100.00;161364.00;5041782;28;20037;-60
2022/12/08 10:28:19;;;;;;;9.70;8.80;;;;;;;3.12;100.00;161384.19;5049309;28;20047;-62
2022/12/08 10:30:44;;;;;;;19.02;9.25;;;;;;;3.11;100.00;161381.50;5049151;28;20021;-62
2022/12/08 10:33:18;;;;;;;8.88;8.15;;;;;;;3.07;100.00;161372.09;5049959;28;20032;-62
2022/12/08 10:35:48;;;;;;;8.80;8.07;;;;;;;3.01;100.00;161355.97;5049021;28;20017;-61
2022/12/08 10:38:18;;;;;;;9.15;8.25;;;;;;;3.06;100.00;161368.03;5050145;28;20116;-62
2022/12/08 10:40:45;;;;;;;9.77;8.77;;;;;;;3.10;100.00;161380.13;5048932;28;20028;-61
2022/12/08 10:43:21;;;;;;;12.65;9.70;;;;;;;3.18;100.00;161400.28;5050287;28;20025;-62
2022/12/08 10:45:46;;;;;;;7.78;6.97;;;;;;;3.28;100.00;161425.81;5052073;28;20053;-61
2022/12/08 10:48:25;;;;;;;10.43;7.63;;;;;;;3.30;100.00;161431.19;5054198;28;20384;-61
2022/12/08 10:50:57;;;;;;;;;;;;;;;3.37;100.00;161448.63;5053093;28;20596;-62
2022/12/08 10:53:30;;;;;;;11.48;8.45;;;;;;;3.38;100.00;161452.69;5054077;28;19908;-62
2022/12/08 10:56:01;;;;;;;7.78;6.97;;;;;;;3.24;100.00;161415.09;5052535;28;20032;-62
2022/12/08 10:58:27;;;;;;;10.27;6.20;;;;;;;3.20;100.00;161405.69;5054270;28;20033;-62
2022/12/08 11:00:55;;;;;;;9.52;6.80;;;;;;;3.32;100.00;161436.53;5052267;28;20115;-62
2022/12/08 11:03:42;;;;;;;7.07;4.97;;;;;;;3.41;100.00;161460.72;5054193;28;20434;-62
2022/12/08 11:06:33;;;;;;;5.72;5.03;;;;;;;3.43;100.00;161466.09;5052234;28;20048;-63
2022/12/08 11:09:16;;;;;;;5.32;4.10;;;;;;;3.47;100.00;161476.84;5053484;28;20024;-62
2022/12/08 11:11:54;;;;;;;4.50;4.10;;;;;;;3.48;100.00;161479.53;5051957;28;20052;-62
2022/12/08 11:14:26;;;;;;;7.80;4.40;;;;;;;3.51;100.00;161484.91;5041390;28;20111;-62
2022/12/08 11:17:08;;;;;;;4.65;3.90;;;;;;;3.55;100.00;161497.00;5045011;28;20091;-63
2022/12/08 11:19:37;;;;;;;6.40;5.10;;;;;;;3.52;100.00;161487.59;5034078;28;20037;-62
2022/12/08 11:22:32;;;;;;;6.20;5.70;;;;;;;3.45;100.00;161471.50;5033212;28;20050;-62
2022/12/08 11:25:07;;;;;;;5.28;4.78;;;;;;;3.47;100.00;161476.84;5033149;28;20064;-63